Nearby METAR Reports

 

K1V6 - Canon City, Colorado, USA
Distance from station: NE 34mi, 55km
Updated: 05/27/2022 6:35pm MDT
Clear
Clear
 Wind from W
Wind: W 20 mph , 31 km/h, Gust: 43 mph , 69 km/h
Temperature: 86°F , 30°C
Dew Point: 25°F , -4°C
Humidity: 11%
Barometer: 29.90 inHg , 1012.5 hPa
Clouds: Clear
Visibility: 10 miles , 16 km
2022/05/28 00:35 K1V6 280035Z AUTO 26017G37KT 10SM CLR 30/M04 A2990 RMK AO2
K04V - Saguache Muni, Colorado, USA
Distance from station: W 35mi, 56km
Updated: 05/27/2022 6:35pm MDT

 Wind from NNW
Wind: NNW 17 mph , 28 km/h, Gust: 24 mph , 39 km/h
Temperature: 70°F , 21°C
Dew Point: 19°F , -7°C
Humidity: 15%
Barometer: 30.12 inHg , 1020 hPa
Visibility: 10 miles , 16 km
2022/05/28 00:35 K04V 280035Z AUTO 34015G21KT 10SM 21/M07 A3012 RMK AO2
 
KANK - Salida, Colorado, USA
Distance from station: NW 43mi, 69km
Updated: 05/27/2022 6:35pm MDT
Clear
Clear
 Wind from WSW
Wind: WSW 16 mph , 26 km/h, Gust: 23 mph , 37 km/h
Barometer: 30.15 inHg , 1021 hPa
Clouds: Clear
Visibility: 10 miles , 16 km
2022/05/28 00:35 KANK 280035Z AUTO 25014G20KT 10SM CLR A3015 RMK AO1
KVTP - La Veta Pass, Colorado, USA
Distance from station: SSE 44mi, 71km
Updated: 05/27/2022 6:35pm MDT
Clear
Clear
 Wind from WSW
Wind: WSW 13 mph , 20 km/h, Gust: 22 mph , 35 km/h
Temperature: 63°F , 17°C
Dew Point: 10°F , -12°C
Humidity: 13%
Barometer: 30.29 inHg , 1025.7 hPa
Clouds: Clear
Visibility: 10 miles , 16 km
2022/05/28 00:35 KVTP 280035Z AUTO 24011G19KT 220V280 10SM CLR 17/M12 A3029 RMK AO2
 
KALS - Alamosa, Colorado, USA
Distance from station: SSW 48mi, 77km
Updated: 05/27/2022 5:52pm MDT
Clear
Clear
 Wind from SW
Wind: SW 23 mph , 37 km/h, Gust: 33 mph , 54 km/h
Temperature: 81°F , 27°C
Dew Point: 9°F , -13°C
Humidity: 6%
Barometer: 30.10 inHg , 1019.3 hPa
Clouds: Clear
Visibility: 10 miles , 16 km
2022/05/27 23:52 KALS 272352Z AUTO 23020G29KT 10SM CLR 27/M13 A3010 RMK AO2 PK WND 24032/2311 SLP109 T02721128 10289 20256 56012